Time;durP1;ratioP1;P1;durP2;ratioP2;P2;SDS_P1;SDS_P2;PMS_P1;PMS_P2;Temp;Humidity;BMP_temperature;BMP_pressure;BME280_temperature;BME280_humidity;BME280_pressure;Samples;Min_cycle;Max_cycle;Signal;HPM_P1;HPM_P2
2023/03/20 00:01:21;;;;;;;30.52;18.58;;;10.50;99.90;;;10.96;100.00;100870.78;5008792;28;20044;-76
2023/03/20 00:03:47;;;;;;;29.10;18.98;;;10.40;99.90;;;10.88;100.00;100878.16;4995731;28;20719;-76
2023/03/20 00:06:21;;;;;;;31.63;19.02;;;10.40;99.90;;;10.83;100.00;100874.38;4996822;28;20061;-75
2023/03/20 00:08:50;;;;;;;29.27;18.40;;;10.40;99.90;;;10.90;100.00;100881.50;4992292;28;20076;-77
2023/03/20 00:11:35;;;;;;;30.63;18.88;;;10.30;99.90;;;10.80;100.00;100875.66;4996876;28;20113;-77
2023/03/20 00:14:08;;;;;;;32.20;19.42;;;10.30;99.90;;;10.73;100.00;100875.69;4992247;28;20046;-76
2023/03/20 00:16:38;;;;;;;32.97;20.10;;;10.20;99.90;;;10.66;100.00;100883.03;5002000;28;20463;-76
2023/03/20 00:19:07;;;;;;;33.08;20.45;;;10.30;99.90;;;10.58;100.00;100872.31;4995393;28;20042;-76
2023/03/20 00:21:33;;;;;;;32.45;21.20;;;10.30;99.90;;;10.56;100.00;100864.38;4998142;28;20100;-76
2023/03/20 00:23:59;;;;;;;33.88;21.42;;;10.30;99.90;;;10.60;100.00;100860.16;5006195;28;20050;-77
2023/03/20 00:26:32;;;;;;;35.78;21.38;;;10.30;99.90;;;10.70;100.00;100886.16;4990200;28;20084;-77
2023/03/20 00:28:58;;;;;;;32.50;20.85;;;10.30;99.90;;;10.73;100.00;100881.13;5009129;28;20053;-77
2023/03/20 00:31:30;;;;;;;33.45;21.25;;;10.30;99.90;;;10.69;100.00;100888.06;5002301;28;20044;-76
2023/03/20 00:34:01;;;;;;;33.10;20.42;;;10.30;99.90;;;10.66;100.00;100885.78;4999249;28;20478;-76
2023/03/20 00:36:27;;;;;;;30.75;19.77;;;10.30;99.90;;;10.54;100.00;100892.91;5001065;28;20060;-76
2023/03/20 00:38:53;;;;;;;34.40;22.25;;;10.30;99.90;;;10.58;100.00;100894.16;4999566;28;20031;-75
2023/03/20 00:41:30;;;;;;;35.13;21.10;;;10.20;99.90;;;10.40;100.00;100887.47;5012000;28;20066;-77
2023/03/20 00:44:02;;;;;;;35.17;22.30;;;10.20;99.90;;;10.39;100.00;100901.25;4999753;28;20121;-77
2023/03/20 00:46:34;;;;;;;43.35;22.75;;;10.20;99.90;;;10.32;100.00;100904.84;5000233;28;20110;-76
2023/03/20 00:49:00;;;;;;;58.67;27.35;;;10.20;99.90;;;9.88;100.00;100895.31;4995249;28;20402;-77
2023/03/20 00:51:26;;;;;;;61.95;27.70;;;10.10;99.90;;;9.93;100.00;100901.84;4995504;28;20125;-78
2023/03/20 00:53:52;;;;;;;60.50;28.40;;;10.00;99.90;;;9.88;100.00;100896.19;5005436;28;20077;-79
2023/03/20 00:56:31;;;;;;;71.00;32.15;;;10.00;99.90;;;9.92;100.00;100893.84;5007072;28;20034;-78
2023/03/20 00:59:00;;;;;;;70.70;33.72;;;10.00;99.90;;;9.83;100.00;100901.41;4978091;28;20045;-78
2023/03/20 01:01:27;;;;;;;67.00;33.00;;;10.00;99.90;;;9.98;100.00;100894.94;5007587;28;20033;-78
2023/03/20 01:03:52;;;;;;;69.88;32.25;;;9.90;99.90;;;9.86;100.00;100898.28;5008845;28;20146;-78
2023/03/20 01:06:18;;;;;;;62.63;31.92;;;9.90;99.90;;;9.91;100.00;100898.47;5004269;28;20173;-78
2023/03/20 01:08:45;;;;;;;57.85;31.20;;;9.90;99.90;;;9.96;100.00;100902.47;4986619;28;20038;-79
2023/03/20 01:11:12;;;;;;;58.72;30.63;;;9.90;99.90;;;9.85;100.00;100907.50;5009475;28;20072;-78
2023/03/20 01:13:40;;;;;;;60.35;31.85;;;9.80;99.90;;;9.77;100.00;100907.66;5010853;28;20040;-79
2023/03/20 01:16:20;;;;;;;61.70;31.55;;;9.80;99.90;;;9.79;100.00;100905.56;5000729;28;20029;-78
2023/03/20 01:18:48;;;;;;;66.90;33.10;;;9.80;99.90;;;9.62;100.00;100911.41;5021951;28;20053;-79
2023/03/20 01:21:13;;;;;;;69.15;33.20;;;9.70;99.90;;;9.77;100.00;100907.66;5026787;28;20038;-78
2023/03/20 01:23:39;;;;;;;83.85;36.22;;;9.70;99.90;;;9.52;100.00;100901.94;5005121;28;20540;-78
2023/03/20 01:26:22;;;;;;;80.93;35.15;;;9.60;99.90;;;9.58;100.00;100909.28;5007845;28;20054;-78
2023/03/20 01:28:50;;;;;;;88.07;36.53;;;9.50;99.90;;;9.43;100.00;100904.84;5017259;28;20030;-78
2023/03/20 01:31:17;;;;;;;82.88;35.67;;;9.50;99.90;;;9.41;100.00;100906.91;4994075;28;20030;-78
2023/03/20 01:33:44;;;;;;;89.00;38.08;;;9.50;99.90;;;9.48;100.00;100909.66;4993719;28;20030;-78
2023/03/20 01:36:14;;;;;;;89.68;37.13;;;9.50;99.90;;;9.54;100.00;100906.13;4997598;28;20126;-78
2023/03/20 01:38:41;;;;;;;89.63;36.17;;;9.50;99.90;;;9.54;100.00;100905.28;5016450;28;22187;-78
2023/03/20 01:41:16;;;;;;;84.07;34.53;;;9.50;99.90;;;9.39;100.00;100905.44;5009160;28;20095;-78
2023/03/20 01:43:44;;;;;;;85.20;36.30;;;9.50;99.90;;;9.47;100.00;100914.28;5020390;28;20432;-78
2023/03/20 01:46:11;;;;;;;85.82;35.78;;;9.50;99.90;;;9.53;100.00;100918.06;5004717;28;20057;-78
2023/03/20 01:48:49;;;;;;;78.07;33.42;;;9.50;99.90;;;9.43;100.00;100917.59;5006719;28;20511;-78
2023/03/20 01:51:27;;;;;;;77.45;31.92;;;9.50;99.90;;;9.45;100.00;100921.81;5026128;28;20401;-78
2023/03/20 01:54:03;;;;;;;76.13;33.20;;;9.40;99.90;;;9.49;100.00;100914.06;4994187;28;20029;-77
2023/03/20 01:56:36;;;;;;;78.45;33.30;;;9.50;99.90;;;9.35;100.00;100913.16;5001457;28;20034;-78
2023/03/20 01:59:12;;;;;;;74.45;32.75;;;9.40;99.90;;;9.52;100.00;100931.88;5023515;28;20050;-78
2023/03/20 02:01:40;;;;;;;76.45;31.25;;;9.40;99.90;;;9.51;100.00;100928.31;4999316;28;20027;-78
2023/03/20 02:04:07;;;;;;;76.97;34.05;;;9.40;99.90;;;9.41;100.00;100927.84;5014352;28;20041;-78
2023/03/20 02:06:45;;;;;;;83.15;32.15;;;9.40;99.90;;;9.38;100.00;100929.09;5026980;28;20514;-78
2023/03/20 02:09:23;;;;;;;71.40;31.45;;;9.40;99.90;;;9.20;100.00;100925.03;5019744;28;20096;-78
2023/03/20 02:11:50;;;;;;;74.07;32.17;;;9.40;99.90;;;9.39;100.00;100938.13;5023444;28;20394;-77
2023/03/20 02:14:21;;;;;;;73.45;30.58;;;9.40;99.90;;;9.43;100.00;100944.84;5025340;28;20030;-78
2023/03/20 02:16:53;;;;;;;76.95;30.92;;;9.40;99.90;;;9.34;100.00;100944.16;5006217;28;20402;-78
2023/03/20 02:19:38;;;;;;;73.55;30.10;;;9.40;99.90;;;9.50;100.00;100945.69;5008558;28;20053;-78
2023/03/20 02:22:40;;;;;;;69.40;28.67;;;9.40;99.90;;;9.41;100.00;100953.19;5024733;28;20130;-78
2023/03/20 02:26:11;;;;;;;63.72;26.98;;;9.40;99.90;;;9.14;100.00;100952.22;5008426;28;20050;-77
2023/03/20 02:29:03;;;;;;;62.13;27.15;;;9.40;99.90;;;9.23;100.00;100964.63;4984768;28;20042;-77
2023/03/20 02:31:32;;;;;;;57.63;24.67;;;9.40;99.90;;;9.17;100.00;100969.00;5019447;28;20489;-77
2023/03/20 02:34:42;;;;;;;52.88;21.30;;;9.30;99.90;;;9.16;100.00;100961.03;5004106;28;20037;-78
2023/03/20 02:37:32;;;;;;;55.22;21.58;;;9.30;99.90;;;9.25;100.00;100969.88;4998240;28;20053;-79
2023/03/20 02:40:09;;;;;;;47.25;19.95;;;9.30;99.90;;;9.38;100.00;100960.94;5023642;28;20053;-78
2023/03/20 02:42:53;;;;;;;44.08;19.13;;;9.30;99.90;;;9.31;100.00;100945.41;4999603;28;20785;-78
2023/03/20 02:45:42;;;;;;;41.45;18.02;;;9.40;99.90;;;9.43;100.00;100947.56;5005335;28;20128;-78
2023/03/20 02:48:53;;;;;;;45.45;18.88;;;9.40;99.90;;;9.48;100.00;100942.34;4992998;28;20482;-77
2023/03/20 02:51:38;;;;;;;39.33;17.80;;;9.40;99.90;;;9.46;100.00;100936.25;5023138;28;20060;-78
2023/03/20 02:54:37;;;;;;;35.92;16.95;;;9.30;99.90;;;9.44;100.00;100931.03;4996639;28;20060;-78
2023/03/20 02:57:15;;;;;;;36.67;17.25;;;9.40;99.90;;;9.21;100.00;100921.28;4997625;28;20363;-78
2023/03/20 03:00:19;;;;;;;38.63;16.33;;;9.30;99.90;;;9.53;100.00;100933.56;4996245;28;20034;-77
2023/03/20 03:03:01;;;;;;;39.53;17.02;;;9.30;99.90;;;9.45;100.00;100934.56;4987497;28;20137;-77
2023/03/20 03:05:39;;;;;;;40.95;17.25;;;9.30;99.90;;;9.48;100.00;100934.16;4992357;28;20053;-79
2023/03/20 03:08:10;;;;;;;37.00;16.95;;;9.30;99.90;;;9.38;100.00;100933.72;4996666;28;20042;-78
2023/03/20 03:10:44;;;;;;;35.95;16.25;;;9.30;99.90;;;9.53;100.00;100926.22;5002315;28;20054;-78
2023/03/20 03:13:23;;;;;;;38.13;17.60;;;9.30;99.90;;;9.50;100.00;100932.94;5018648;28;20038;-77
2023/03/20 03:15:57;;;;;;;34.33;16.40;;;9.20;99.90;;;9.26;100.00;100922.53;5004978;28;20076;-77
2023/03/20 03:18:26;;;;;;;38.00;16.45;;;9.20;99.90;;;9.18;100.00;100918.09;5006064;28;20513;-78
2023/03/20 03:20:58;;;;;;;32.88;17.05;;;9.20;99.90;;;9.22;100.00;100924.81;5007669;28;20042;-78
2023/03/20 03:23:43;;;;;;;37.60;16.40;;;9.20;99.90;;;9.35;100.00;100914.00;4998490;28;20065;-78
2023/03/20 03:26:30;;;;;;;35.33;16.48;;;9.30;99.90;;;9.21;100.00;100912.25;4994082;28;20167;-77
2023/03/20 03:29:02;;;;;;;34.70;15.45;;;9.20;99.90;;;9.28;100.00;100915.03;5005622;28;20042;-78
2023/03/20 03:31:29;;;;;;;35.05;15.27;;;9.20;99.90;;;9.25;100.00;100910.81;5007764;28;20213;-78
2023/03/20 03:33:59;;;;;;;34.70;15.95;;;9.10;99.90;;;9.18;100.00;100912.66;5004009;28;20529;-76
2023/03/20 03:36:57;;;;;;;36.35;16.35;;;9.00;99.90;;;9.11;100.00;100914.50;5024405;28;20030;-77
2023/03/20 03:40:01;;;;;;;36.03;16.17;;;8.90;99.90;;;9.01;100.00;100915.69;5007108;28;20137;-76
2023/03/20 03:42:36;;;;;;;34.75;15.65;;;8.80;99.90;;;8.97;100.00;100925.31;5000018;28;20044;-76
2023/03/20 03:45:13;;;;;;;35.10;16.40;;;8.70;99.90;;;8.93;100.00;100926.75;5005163;28;20034;-77
2023/03/20 03:47:51;;;;;;;35.47;16.35;;;8.60;99.90;;;8.87;100.00;100922.09;4997621;28;20155;-76
2023/03/20 03:50:25;;;;;;;36.08;16.17;;;8.60;99.90;;;8.87;100.00;100931.09;4992760;28;20125;-77
2023/03/20 03:53:01;;;;;;;38.78;16.10;;;8.50;99.90;;;8.78;100.00;100925.00;4978205;28;20081;-76
2023/03/20 03:55:38;;;;;;;39.65;17.65;;;8.50;99.90;;;8.76;100.00;100931.66;4996858;28;20520;-76
2023/03/20 03:58:14;;;;;;;;;;;8.40;99.90;;;8.70;100.00;100933.28;5014812;28;20053;-76
2023/03/20 04:00:45;;;;;;;36.70;17.02;;;8.30;99.90;;;8.67;100.00;100928.22;5006881;28;20000;-76
2023/03/20 04:03:12;;;;;;;44.33;17.35;;;8.30;99.90;;;8.56;100.00;100923.34;5003139;28;20034;-76
2023/03/20 04:05:45;;;;;;;37.35;17.05;;;8.20;99.90;;;8.54;100.00;100928.13;5029182;28;20027;-76
2023/03/20 04:08:11;;;;;;;47.65;18.55;;;8.20;99.90;;;8.53;100.00;100926.47;5015791;28;20070;-75
2023/03/20 04:10:39;;;;;;;42.90;17.35;;;8.20;99.90;;;8.59;100.00;100922.94;4995780;28;20034;-75
2023/03/20 04:13:07;;;;;;;39.13;17.23;;;8.20;99.90;;;8.61;100.00;100926.31;4995931;28;20053;-76
2023/03/20 04:15:34;;;;;;;43.97;18.40;;;8.20;99.90;;;8.60;100.00;100932.78;5011259;28;20042;-77
2023/03/20 04:18:00;;;;;;;43.83;17.63;;;8.20;99.90;;;8.62;100.00;100936.16;5019640;28;20077;-76
2023/03/20 04:20:26;;;;;;;40.75;18.33;;;8.30;99.90;;;8.57;100.00;100923.13;5015231;28;20051;-76
2023/03/20 04:22:51;;;;;;;40.35;18.05;;;8.30;99.90;;;8.56;100.00;100932.31;5011248;28;20077;-76
2023/03/20 04:25:22;;;;;;;42.33;18.45;;;8.40;99.90;;;8.48;100.00;100938.72;5016419;28;20042;-76
2023/03/20 04:27:51;;;;;;;44.75;18.20;;;8.40;99.90;;;8.69;100.00;100937.03;4994612;28;20035;-76
2023/03/20 04:30:26;;;;;;;47.22;17.90;;;8.50;99.90;;;8.67;100.00;100922.78;5017704;28;20038;-76
2023/03/20 04:33:28;;;;;;;42.10;18.77;;;8.50;99.90;;;8.65;100.00;100932.22;5010898;28;20054;-76
2023/03/20 04:36:01;;;;;;;46.05;18.15;;;8.50;99.90;;;8.55;100.00;100924.38;5009993;28;20049;-76
2023/03/20 04:38:26;;;;;;;42.05;16.92;;;8.50;99.90;;;8.70;100.00;100927.00;5005495;28;20030;-77
2023/03/20 04:40:53;;;;;;;43.15;18.35;;;8.50;99.90;;;8.75;100.00;100930.81;5019851;28;20030;-77
2023/03/20 04:43:19;;;;;;;38.58;17.50;;;8.50;99.90;;;8.72;100.00;100925.75;5007327;28;20110;-77
2023/03/20 04:45:45;;;;;;;46.20;19.13;;;8.40;99.90;;;8.68;100.00;100918.22;5024684;28;20044;-78
2023/03/20 04:48:12;;;;;;;44.55;18.55;;;8.40;99.90;;;8.66;100.00;100914.84;5010347;28;20433;-77
2023/03/20 04:50:39;;;;;;;44.67;17.88;;;8.40;99.90;;;8.70;100.00;100922.41;5006901;28;20117;-77
2023/03/20 04:53:04;;;;;;;41.85;17.90;;;8.40;99.90;;;8.72;100.00;100917.59;4996875;28;20052;-77
2023/03/20 04:55:31;;;;;;;44.17;17.98;;;8.40;99.90;;;8.66;100.00;100912.13;5011572;28;20194;-78
2023/03/20 04:57:56;;;;;;;46.95;18.88;;;8.40;99.90;;;8.66;100.00;100915.66;5010563;28;20033;-77
2023/03/20 05:00:25;;;;;;;;;;;8.50;99.90;;;8.74;100.00;100904.63;5025512;28;20026;-77
2023/03/20 05:02:50;;;;;;;39.33;17.65;;;8.50;99.90;;;8.71;100.00;100913.19;5008523;28;19917;-77
2023/03/20 05:05:16;;;;;;;42.05;18.33;;;8.50;99.90;;;8.62;100.00;100906.22;5010772;28;20104;-77
2023/03/20 05:07:43;;;;;;;38.45;17.52;;;8.50;99.90;;;8.60;100.00;100883.84;5005854;28;20052;-77
2023/03/20 05:10:14;;;;;;;40.80;17.65;;;8.50;99.90;;;8.65;100.00;100905.00;5006322;28;20552;-74
2023/03/20 05:13:00;;;;;;;39.25;17.35;;;8.50;99.90;;;8.64;100.00;100898.72;5005541;28;20118;-75
2023/03/20 05:15:52;;;;;;;39.10;17.95;;;8.50;99.90;;;8.69;100.00;100898.13;5001211;28;20030;-76
2023/03/20 05:18:28;;;;;;;42.75;17.40;;;8.50;99.90;;;8.74;100.00;100895.66;5001806;28;20045;-76
2023/03/20 05:21:14;;;;;;;41.40;17.52;;;8.50;99.90;;;8.71;100.00;100896.06;4999115;28;20390;-76
2023/03/20 05:23:54;;;;;;;36.67;17.33;;;8.50;99.90;;;8.66;100.00;100893.09;5004868;28;20034;-77
2023/03/20 05:26:39;;;;;;;36.35;17.10;;;8.50;99.90;;;8.77;100.00;100889.81;5003828;28;20037;-75
2023/03/20 05:29:25;;;;;;;36.72;17.48;;;8.60;99.90;;;8.73;100.00;100896.69;5000052;28;20049;-77
2023/03/20 05:32:06;;;;;;;38.50;17.83;;;8.60;99.90;;;8.80;100.00;100889.41;5012053;28;20029;-76
2023/03/20 05:34:56;;;;;;;39.03;17.30;;;8.60;99.90;;;8.82;100.00;100881.88;5005885;28;20038;-77
2023/03/20 05:37:39;;;;;;;40.65;17.42;;;8.70;99.90;;;8.94;100.00;100893.06;5008502;28;20021;-77
2023/03/20 05:40:15;;;;;;;37.03;17.02;;;8.70;99.90;;;9.01;100.00;100902.09;5024229;28;20084;-77
2023/03/20 05:42:59;;;;;;;37.10;17.08;;;8.70;99.90;;;9.05;100.00;100903.38;4988553;28;20026;-77
2023/03/20 05:45:44;;;;;;;38.15;17.05;;;8.80;99.90;;;9.09;100.00;100908.44;5011044;28;20616;-76
2023/03/20 05:48:23;;;;;;;38.17;16.83;;;8.80;99.90;;;9.09;100.00;100903.81;5006947;28;20045;-74
2023/03/20 05:51:07;;;;;;;41.30;18.13;;;8.90;99.90;;;9.12;100.00;100902.59;5008976;28;20030;-74
2023/03/20 05:53:41;;;;;;;34.65;17.25;;;8.90;99.90;;;9.04;100.00;100909.88;5020312;28;20042;-75
2023/03/20 05:56:22;;;;;;;38.00;16.75;;;8.90;99.90;;;9.10;100.00;100913.66;5007620;28;20030;-73
2023/03/20 05:58:59;;;;;;;35.95;16.98;;;8.90;99.90;;;9.16;100.00;100912.03;5000545;28;20034;-74
2023/03/20 06:01:33;;;;;;;38.75;18.33;;;9.00;99.90;;;9.20;100.00;100913.28;5007716;28;20528;-75
2023/03/20 06:04:07;;;;;;;40.33;17.30;;;9.00;99.90;;;9.18;100.00;100918.09;4998066;28;20458;-74
2023/03/20 06:06:50;;;;;;;42.33;17.95;;;9.00;99.90;;;9.18;100.00;100924.41;5024589;28;20061;-75
2023/03/20 06:09:15;;;;;;;39.80;17.83;;;9.10;99.90;;;9.30;100.00;100921.09;5005707;28;20401;-76
2023/03/20 06:11:42;;;;;;;41.15;17.75;;;9.10;99.90;;;9.36;100.00;100912.13;5007351;28;20030;-76
2023/03/20 06:14:08;;;;;;;37.63;18.05;;;9.10;99.90;;;9.36;100.00;100923.00;5009677;28;20073;-76
2023/03/20 06:16:37;;;;;;;40.47;18.63;;;9.20;99.90;;;9.39;100.00;100925.31;5006347;28;20038;-77
2023/03/20 06:19:03;;;;;;;41.03;18.40;;;9.20;99.90;;;9.42;100.00;100924.09;5024733;28;20040;-76
2023/03/20 06:21:32;;;;;;;43.63;18.27;;;9.20;99.90;;;9.49;100.00;100924.94;5008523;28;20054;-76
2023/03/20 06:23:58;;;;;;;45.17;18.60;;;9.20;99.90;;;9.46;100.00;100909.03;5010525;28;20030;-77
2023/03/20 06:26:25;;;;;;;44.60;19.48;;;9.20;99.90;;;9.58;100.00;100912.00;5008713;28;20037;-77
2023/03/20 06:28:58;;;;;;;45.83;19.45;;;9.30;99.90;;;9.59;100.00;100925.44;5009885;28;20044;-77
2023/03/20 06:31:24;;;;;;;41.47;19.75;;;9.30;99.90;;;9.61;100.00;100936.97;5007573;28;20116;-76
2023/03/20 06:33:51;;;;;;;43.97;18.52;;;9.40;99.90;;;9.58;100.00;100931.94;4999561;28;20040;-75
2023/03/20 06:36:17;;;;;;;45.63;19.17;;;9.40;99.90;;;9.69;100.00;100935.09;5008049;28;20034;-75
2023/03/20 06:38:44;;;;;;;42.95;18.65;;;9.40;99.90;;;9.70;100.00;100936.78;5018805;28;20040;-75
2023/03/20 06:41:14;;;;;;;40.60;18.02;;;9.40;99.90;;;9.57;100.00;100935.69;5005889;28;20030;-74
2023/03/20 06:43:41;;;;;;;41.42;20.13;;;9.50;99.90;;;9.68;100.00;100949.75;5005018;28;20140;-75
2023/03/20 06:46:08;;;;;;;39.63;18.10;;;9.50;99.90;;;9.68;100.00;100945.16;5021834;28;20108;-75
2023/03/20 06:48:35;;;;;;;40.30;19.30;;;9.50;99.90;;;9.76;100.00;100955.03;5006716;28;20466;-75
2023/03/20 06:51:05;;;;;;;42.55;19.25;;;9.50;99.90;;;9.78;100.00;100951.06;5001049;28;20165;-75
2023/03/20 06:53:38;;;;;;;41.60;19.02;;;9.50;99.90;;;9.81;100.00;100944.34;4988224;28;20037;-75
2023/03/20 06:56:08;;;;;;;41.63;20.17;;;9.50;99.90;;;9.69;100.00;100943.28;5001894;28;20046;-75
2023/03/20 06:58:33;;;;;;;39.97;19.35;;;9.50;99.90;;;9.77;100.00;100948.53;5005129;28;20762;-75
2023/03/20 07:00:59;;;;;;;41.75;20.17;;;9.50;99.90;;;9.76;100.00;100952.28;5004544;28;20049;-75
2023/03/20 07:03:25;;;;;;;40.88;19.90;;;9.50;99.90;;;9.82;100.00;100950.66;5001563;28;20036;-75
2023/03/20 07:05:52;;;;;;;39.90;19.73;;;9.50;99.90;;;9.70;100.00;100942.22;5005452;28;20040;-76
2023/03/20 07:08:19;;;;;;;48.40;20.98;;;9.50;99.90;;;9.77;100.00;100956.69;5007641;28;20033;-75
2023/03/20 07:10:45;;;;;;;45.25;22.08;;;9.50;99.90;;;9.68;100.00;100955.22;5018174;28;20030;-76
2023/03/20 07:13:13;;;;;;;44.45;21.90;;;9.50;99.90;;;9.60;100.00;100962.53;5001267;28;20057;-74
2023/03/20 07:15:39;;;;;;;47.53;22.67;;;9.50;99.90;;;9.55;100.00;100970.47;5022689;28;20434;-74
2023/03/20 07:18:07;;;;;;;39.05;19.02;;;9.50;99.90;;;9.53;100.00;100953.47;5005935;28;20046;-74
2023/03/20 07:20:33;;;;;;;43.80;19.95;;;9.50;99.90;;;9.64;100.00;100957.50;5002413;28;20053;-74
2023/03/20 07:22:59;;;;;;;42.60;19.77;;;9.50;99.90;;;9.71;100.00;100958.38;5010935;28;20049;-73
2023/03/20 07:25:27;;;;;;;45.00;19.55;;;9.50;99.90;;;9.57;100.00;100970.25;4997252;28;20069;-74
2023/03/20 07:27:55;;;;;;;42.10;20.13;;;9.60;99.90;;;9.92;100.00;100962.84;5000658;28;20472;-75
2023/03/20 07:30:24;;;;;;;37.00;18.55;;;9.70;99.90;;;9.86;100.00;100960.94;5017798;28;20038;-73
2023/03/20 07:32:50;;;;;;;38.42;18.85;;;9.70;99.90;;;9.86;100.00;100943.75;5001756;28;20041;-74
2023/03/20 07:35:16;;;;;;;36.50;18.42;;;9.80;99.90;;;9.83;100.00;100957.78;5004272;28;20045;-74
2023/03/20 07:37:43;;;;;;;36.40;16.80;;;9.90;99.90;;;9.70;100.00;100959.44;4995689;28;20041;-74
2023/03/20 07:40:11;;;;;;;34.97;18.17;;;9.90;99.90;;;10.12;100.00;100970.25;5004297;28;20049;-74
2023/03/20 07:42:54;;;;;;;31.65;16.90;;;9.90;99.90;;;10.17;100.00;100965.00;4999362;28;20033;-73
2023/03/20 07:45:40;;;;;;;29.08;14.43;;;9.90;99.90;;;9.96;100.00;100963.28;5003231;28;20049;-73
2023/03/20 07:48:06;;;;;;;28.17;14.10;;;9.90;99.90;;;10.04;100.00;100970.41;5003415;28;20038;-74
2023/03/20 07:50:32;;;;;;;29.67;14.35;;;9.90;99.90;;;10.10;100.00;100964.16;5003503;28;20067;-74
2023/03/20 07:52:59;;;;;;;29.20;14.45;;;9.90;99.90;;;10.12;100.00;100969.41;5015501;28;20038;-74
2023/03/20 07:55:25;;;;;;;25.65;14.07;;;9.90;99.90;;;10.08;100.00;100955.34;5002479;28;20197;-75
2023/03/20 07:57:51;;;;;;;27.70;13.52;;;10.00;99.90;;;10.31;100.00;100965.88;4997186;28;20117;-73
2023/03/20 08:00:19;;;;;;;31.83;14.48;;;10.00;99.90;;;10.35;99.13;100961.69;5002164;28;20505;-74
2023/03/20 08:02:45;;;;;;;;;;;10.10;99.90;;;10.37;97.49;100964.22;4998586;28;20040;-74
2023/03/20 08:05:11;;;;;;;25.35;13.38;;;10.20;99.90;;;10.39;96.77;100973.03;5003515;28;19918;-74
2023/03/20 08:07:36;;;;;;;28.50;14.80;;;10.20;99.90;;;10.49;96.48;100962.56;4996377;28;20042;-75
2023/03/20 08:10:03;;;;;;;26.48;13.68;;;10.30;99.90;;;10.88;95.78;100959.22;5002894;28;20030;-75
2023/03/20 08:12:29;;;;;;;24.02;12.73;;;10.50;99.90;;;10.94;92.98;100964.66;5003138;28;20425;-75
2023/03/20 08:14:54;;;;;;;24.02;12.63;;;10.70;99.90;;;11.03;92.19;100956.28;5008375;28;20034;-75
2023/03/20 08:17:20;;;;;;;21.10;11.88;;;10.80;99.90;;;11.09;90.20;100971.78;5006840;28;20061;-75
2023/03/20 08:19:46;;;;;;;21.90;12.52;;;11.00;99.90;;;11.20;88.55;100964.84;4991932;28;20050;-75
2023/03/20 08:22:12;;;;;;;19.95;12.07;;;11.00;99.90;;;11.26;89.19;100960.41;5007393;28;20038;-74
2023/03/20 08:24:38;;;;;;;22.80;11.20;;;11.10;99.90;;;11.10;87.51;100956.22;4997623;28;20528;-75
2023/03/20 08:27:04;;;;;;;17.40;9.88;;;11.00;99.90;;;11.08;86.91;100954.56;4999395;28;20039;-74
2023/03/20 08:29:30;;;;;;;20.65;10.98;;;11.00;99.90;;;11.01;86.92;100959.19;4997726;28;20031;-74
2023/03/20 08:31:56;;;;;;;19.90;10.85;;;10.90;99.90;;;11.17;87.31;100960.63;5005813;28;20574;-75
2023/03/20 08:34:22;;;;;;;21.05;11.45;;;10.90;99.90;;;10.84;86.59;100961.53;5003466;28;20054;-75
2023/03/20 08:36:48;;;;;;;19.95;11.48;;;10.80;99.90;;;10.72;87.80;100965.91;4995771;28;20405;-74
2023/03/20 08:39:13;;;;;;;20.92;11.77;;;10.70;99.90;;;10.89;88.73;100956.28;4994067;28;20042;-74
2023/03/20 08:41:42;;;;;;;19.77;11.40;;;10.70;99.90;;;10.83;88.29;100959.84;4994421;28;20045;-73
2023/03/20 08:44:08;;;;;;;20.75;11.05;;;10.70;99.90;;;10.91;87.40;100964.25;5025500;28;20044;-73
2023/03/20 08:46:34;;;;;;;19.25;10.45;;;10.80;99.90;;;11.00;87.02;100960.25;5004125;28;20037;-74
2023/03/20 08:48:59;;;;;;;21.08;11.93;;;10.80;99.90;;;10.81;86.85;100977.47;4999401;28;20030;-74
2023/03/20 08:51:26;;;;;;;21.25;12.75;;;10.80;99.90;;;10.93;87.19;100984.00;4999175;28;20438;-74
2023/03/20 08:53:52;;;;;;;23.05;12.15;;;10.80;99.90;;;10.88;87.24;100976.44;5010914;28;20041;-74
2023/03/20 08:56:17;;;;;;;22.30;12.55;;;10.80;99.90;;;10.82;87.24;100990.91;4998846;28;20034;-74
2023/03/20 08:58:43;;;;;;;23.65;13.10;;;10.80;99.90;;;10.82;87.27;100980.00;5010701;28;20383;-74
2023/03/20 09:01:09;;;;;;;22.70;12.35;;;10.80;99.90;;;10.84;86.53;100993.41;4996501;28;20478;-73
2023/03/20 09:03:36;;;;;;;21.75;12.45;;;10.80;99.90;;;10.86;86.99;100985.88;4995978;28;20041;-74
2023/03/20 09:06:06;;;;;;;20.45;11.77;;;10.80;99.90;;;10.92;86.14;100985.03;4995718;28;20382;-74
2023/03/20 09:08:32;;;;;;;19.42;11.73;;;10.80;99.90;;;10.79;86.04;100975.78;4995995;28;20093;-74
2023/03/20 09:10:58;;;;;;;20.50;11.07;;;10.80;99.90;;;10.74;85.77;100974.75;5002103;28;20062;-74
2023/03/20 09:13:24;;;;;;;19.65;11.00;;;10.80;99.90;;;11.03;85.37;100972.66;5008000;28;20045;-74
2023/03/20 09:15:51;;;;;;;18.05;10.98;;;10.90;99.90;;;11.18;84.22;100972.41;5006964;28;20612;-74
2023/03/20 09:18:19;;;;;;;19.97;10.20;;;11.00;99.90;;;11.14;83.08;100973.88;5001036;28;20104;-74
2023/03/20 09:20:47;;;;;;;19.10;10.63;;;11.00;99.90;;;11.12;82.97;100979.56;4999930;28;20295;-74
2023/03/20 09:23:12;;;;;;;16.70;9.85;;;11.00;99.90;;;11.25;82.04;100989.63;5010840;28;20077;-74
2023/03/20 09:25:38;;;;;;;17.35;9.27;;;11.10;99.90;;;11.10;81.80;100972.63;5006743;28;20076;-74
2023/03/20 09:28:04;;;;;;;16.92;9.93;;;11.00;99.90;;;10.81;83.15;100985.66;5015355;28;20030;-74
2023/03/20 09:30:30;;;;;;;17.77;10.00;;;10.80;99.90;;;10.28;84.73;100982.66;5020460;28;20046;-74
2023/03/20 09:32:56;;;;;;;17.63;10.82;;;10.70;99.90;;;10.43;86.82;100998.88;5002716;28;20029;-74
2023/03/20 09:35:21;;;;;;;19.63;10.70;;;10.50;99.90;;;10.47;86.83;101000.13;5001981;28;20038;-74
2023/03/20 09:37:47;;;;;;;19.80;10.75;;;10.60;99.90;;;10.50;87.07;100996.97;4998013;28;20049;-74
2023/03/20 09:40:47;;;;;;;18.02;11.25;;;10.60;99.90;;;10.69;87.16;101005.41;5000891;28;20038;-75
2023/03/20 09:43:17;;;;;;;20.70;11.90;;;10.80;99.90;;;10.99;86.77;100996.78;5005607;28;20033;-74
2023/03/20 09:46:30;;;;;;;22.95;12.82;;;10.90;99.90;;;10.81;85.04;100982.94;5007633;28;20053;-74
2023/03/20 09:49:45;;;;;;;22.13;12.77;;;10.90;99.90;;;10.59;86.45;100996.78;5003695;28;20373;-74
2023/03/20 09:53:01;;;;;;;21.90;13.38;;;10.80;99.90;;;10.88;85.10;100995.53;4982540;28;20391;-74
2023/03/20 09:55:34;;;;;;;22.02;13.00;;;10.90;99.90;;;10.89;83.68;100996.38;4965516;28;20452;-74
2023/03/20 09:58:13;;;;;;;21.10;12.77;;;11.00;99.90;;;10.35;85.15;100991.69;4994134;28;20050;-74
2023/03/20 10:00:43;;;;;;;22.65;12.55;;;10.80;99.90;;;10.20;85.54;101002.78;4994861;28;20042;-74
2023/03/20 10:03:42;;;;;;;24.75;14.13;;;10.70;99.90;;;10.47;86.22;101002.00;4999762;28;20474;-75
2023/03/20 10:06:15;;;;;;;23.35;13.13;;;10.70;99.90;;;10.26;86.03;101006.56;5016160;28;20073;-74
2023/03/20 10:08:42;;;;;;;21.00;12.98;;;10.50;99.90;;;10.38;85.43;101006.81;5001674;28;20089;-74
2023/03/20 10:11:32;;;;;;;22.08;13.65;;;10.60;99.90;;;10.68;84.54;101006.44;4995316;28;20057;-74
2023/03/20 10:14:25;;;;;;;23.40;13.10;;;10.70;99.90;;;10.77;82.13;101001.63;4998104;28;20490;-75
2023/03/20 10:17:13;;;;;;;20.27;12.02;;;10.90;99.90;;;11.03;79.11;100989.84;5001829;28;20389;-74
2023/03/20 10:20:21;;;;;;;21.15;11.68;;;11.30;99.90;;;10.98;75.95;100981.47;5006939;28;20050;-74
2023/03/20 10:22:57;;;;;;;19.05;11.50;;;11.40;99.90;;;11.18;76.69;100975.16;4999034;28;21142;-74
2023/03/20 10:25:33;;;;;;;17.67;10.98;;;11.50;99.90;;;11.22;75.98;100976.38;5019963;28;20172;-74
2023/03/20 10:28:03;;;;;;;17.98;10.77;;;11.60;99.90;;;11.08;76.80;100995.50;4999508;28;20394;-74
2023/03/20 10:30:53;;;;;;;19.33;11.68;;;11.50;99.90;;;11.15;77.40;100991.97;4994732;28;20426;-74